createdAt,value
2018-02-16T00:03:22.240Z,13.93
2018-02-16T00:08:06.131Z,12.53
2018-02-16T00:13:07.464Z,14.37
2018-02-16T00:17:53.546Z,11.73
2018-02-16T00:36:11.388Z,13.07
2018-02-16T00:40:54.937Z,13.67
2018-02-16T00:45:38.332Z,13.20
2018-02-16T00:50:21.727Z,14.70
2018-02-16T00:55:05.912Z,14.57
2018-02-16T00:59:49.373Z,14.40
2018-02-16T01:04:32.762Z,15.07
2018-02-16T01:09:17.164Z,15.20
2018-02-16T01:14:00.547Z,16.73
2018-02-16T01:18:44.005Z,13.77
2018-02-16T01:23:27.535Z,11.70
2018-02-16T01:28:10.996Z,13.50
2018-02-16T01:32:54.367Z,15.27
2018-02-16T01:37:37.780Z,16.23
2018-02-16T01:42:21.368Z,14.10
2018-02-16T01:47:04.736Z,15.47
2018-02-16T01:51:48.147Z,15.57
2018-02-16T01:56:31.526Z,14.43
2018-02-16T02:01:14.892Z,15.37
2018-02-16T02:05:59.112Z,15.23
2018-02-16T02:10:43.376Z,15.43
2018-02-16T02:15:27.537Z,16.93
2018-02-16T02:20:10.893Z,16.37
2018-02-16T02:24:54.191Z,16.90
2018-02-16T02:29:37.598Z,17.83
2018-02-16T02:34:20.999Z,15.80
2018-02-16T02:39:04.322Z,16.00
2018-02-16T02:43:47.936Z,17.77
2018-02-16T02:48:32.014Z,18.57
2018-02-16T02:53:15.379Z,17.53
2018-02-16T02:57:58.780Z,22.23
2018-02-16T03:02:42.911Z,17.47
2018-02-16T03:07:26.287Z,21.00
2018-02-16T03:12:09.721Z,22.67
2018-02-16T03:16:53.925Z,19.53
2018-02-16T03:21:37.603Z,22.10
2018-02-16T03:26:20.899Z,22.47
2018-02-16T03:31:04.233Z,22.37
2018-02-16T03:35:47.680Z,23.40
2018-02-16T03:40:31.078Z,24.83
2018-02-16T03:45:15.450Z,25.93
2018-02-16T03:49:58.786Z,27.23
2018-02-16T03:54:42.909Z,25.33
2018-02-16T03:59:26.252Z,24.70
2018-02-16T04:04:09.624Z,28.47
2018-02-16T04:08:53.876Z,28.10
2018-02-16T04:13:37.269Z,28.00
2018-02-16T04:18:20.688Z,27.83
2018-02-16T04:23:04.326Z,29.37
2018-02-16T04:27:48.447Z,29.07
2018-02-16T04:32:31.855Z,29.53
2018-02-16T04:37:15.210Z,28.63
2018-02-16T04:41:58.573Z,31.07
2018-02-16T04:46:41.927Z,31.70
2018-02-16T04:51:25.620Z,27.13
2018-02-16T04:56:08.992Z,30.30
2018-02-16T05:00:52.353Z,31.03
2018-02-16T05:05:35.770Z,31.47
2018-02-16T05:10:19.137Z,28.97
2018-02-16T05:15:02.521Z,32.73
2018-02-16T05:19:46.123Z,30.07
2018-02-16T05:24:29.424Z,32.97
2018-02-16T05:29:12.831Z,30.33
2018-02-16T05:33:56.207Z,29.17
2018-02-16T05:38:39.578Z,29.73
2018-02-16T05:43:22.945Z,33.43
2018-02-16T05:48:07.094Z,36.43
2018-02-16T05:52:50.498Z,33.30
2018-02-16T05:57:34.067Z,34.00
2018-02-16T06:02:17.451Z,33.87
2018-02-16T06:07:01.610Z,33.33
2018-02-16T06:11:46.020Z,36.57
2018-02-16T06:16:29.395Z,36.50
2018-02-16T06:21:12.762Z,39.93
2018-02-16T06:25:56.927Z,36.23
2018-02-16T06:30:40.389Z,36.17
2018-02-16T06:35:23.785Z,39.33
2018-02-16T06:40:07.181Z,40.17
2018-02-16T06:44:50.607Z,40.17
2018-02-16T06:49:34.270Z,34.47
2018-02-16T06:54:17.828Z,39.20
2018-02-16T06:59:01.218Z,36.53
2018-02-16T07:03:44.624Z,36.60
2018-02-16T07:08:28.116Z,41.00
2018-02-16T07:13:12.387Z,39.67
2018-02-16T07:17:55.860Z,37.73
2018-02-16T07:22:39.560Z,37.20
2018-02-16T07:27:23.035Z,35.03
2018-02-16T07:32:08.171Z,31.70
2018-02-16T07:36:51.727Z,35.03
2018-02-16T07:41:35.814Z,31.27
2018-02-16T07:46:19.206Z,31.43
2018-02-16T07:51:03.691Z,32.87
2018-02-16T07:55:47.895Z,29.50
2018-02-16T08:00:31.257Z,35.73
2018-02-16T08:05:14.667Z,31.10
2018-02-16T08:09:58.042Z,29.90
2018-02-16T08:14:41.487Z,28.20
2018-02-16T08:19:24.842Z,30.40
2018-02-16T08:24:08.164Z,27.80
2018-02-16T08:28:51.559Z,28.53
2018-02-16T08:33:35.098Z,25.40
2018-02-16T08:38:18.556Z,26.63
2018-02-16T08:43:01.931Z,26.27
2018-02-16T08:47:45.427Z,24.87
2018-02-16T08:52:28.828Z,25.10
2018-02-16T08:57:12.190Z,25.53
2018-02-16T09:01:56.505Z,25.60
2018-02-16T09:06:40.496Z,20.60
2018-02-16T09:11:24.115Z,22.73
2018-02-16T09:16:07.445Z,25.13
2018-02-16T09:20:50.809Z,20.00
2018-02-16T09:25:34.175Z,16.80
2018-02-16T09:30:18.278Z,19.53
2018-02-16T09:35:01.693Z,23.17
2018-02-16T09:39:45.652Z,28.50
2018-02-16T09:44:29.262Z,19.07
2018-02-16T09:49:12.660Z,21.63
2018-02-16T09:53:56.154Z,14.30
2018-02-16T09:58:40.332Z,14.83
2018-02-16T10:03:24.554Z,14.60
2018-02-16T10:08:07.974Z,16.37
2018-02-16T10:12:51.601Z,13.67
2018-02-16T10:17:36.071Z,16.73
2018-02-16T10:22:20.357Z,13.43
2018-02-16T10:27:03.714Z,15.33
2018-02-16T10:31:47.082Z,12.73
2018-02-16T10:36:30.605Z,20.70
2018-02-16T10:41:13.921Z,12.10
2018-02-16T10:45:57.268Z,13.70
2018-02-16T10:50:40.604Z,11.50
2018-02-16T10:55:23.958Z,12.83
2018-02-16T11:00:07.330Z,14.33
2018-02-16T11:04:56.287Z,9.27
2018-02-16T11:09:39.637Z,11.00
2018-02-16T11:14:23.066Z,10.87
2018-02-16T11:19:06.643Z,13.03
2018-02-16T11:23:50.755Z,11.13
2018-02-16T11:28:34.208Z,7.70
2018-02-16T11:33:17.556Z,8.03
2018-02-16T11:38:01.691Z,7.53
2018-02-16T11:42:45.036Z,9.60
2018-02-16T11:47:28.410Z,12.03
2018-02-16T11:52:12.793Z,8.97
2018-02-16T11:56:56.835Z,8.00
2018-02-16T12:01:40.980Z,10.07
2018-02-16T12:06:24.343Z,8.13
2018-02-16T12:11:08.439Z,9.83
2018-02-16T12:15:51.769Z,11.97
2018-02-16T12:20:35.135Z,13.07
2018-02-16T12:25:18.468Z,11.00
2018-02-16T12:30:02.072Z,8.53
2018-02-16T12:34:46.150Z,14.90
2018-02-16T12:39:30.379Z,11.53
2018-02-16T12:44:14.495Z,10.27
2018-02-16T12:48:57.884Z,8.13
2018-02-16T12:53:42.103Z,8.13
2018-02-16T12:58:25.458Z,9.77
2018-02-16T13:03:09.166Z,8.10
2018-02-16T13:07:52.510Z,8.50
2018-02-16T13:12:35.842Z,8.47
2018-02-16T13:17:19.211Z,9.80
2018-02-16T13:22:02.550Z,10.13
2018-02-16T13:26:45.998Z,8.83
2018-02-16T13:31:30.186Z,7.43
2018-02-16T13:36:14.605Z,8.17
2018-02-16T13:40:57.942Z,9.77
2018-02-16T13:45:41.251Z,10.63
2018-02-16T13:50:24.642Z,7.93
2018-02-16T13:55:08.049Z,10.87
2018-02-16T13:59:51.486Z,9.27
2018-02-16T14:04:35.900Z,12.83
2018-02-16T14:09:19.195Z,12.63
2018-02-16T14:14:02.575Z,11.47
2018-02-16T14:18:45.978Z,10.43
2018-02-16T14:23:29.464Z,12.17
2018-02-16T14:28:12.851Z,11.73
2018-02-16T14:32:57.088Z,12.97
2018-02-16T14:37:41.526Z,12.83
2018-02-16T14:42:25.722Z,10.23
2018-02-16T14:47:09.240Z,16.50
2018-02-16T14:51:53.432Z,12.57
2018-02-16T14:56:37.687Z,17.30
2018-02-16T15:01:21.882Z,12.00
2018-02-16T15:06:05.522Z,13.93
2018-02-16T15:10:48.856Z,18.40
2018-02-16T15:15:32.216Z,14.60
2018-02-16T15:20:15.601Z,18.37
2018-02-16T15:24:59.035Z,19.60
2018-02-16T15:29:43.173Z,16.33
2018-02-16T15:34:26.510Z,15.70
2018-02-16T15:39:09.902Z,15.80
2018-02-16T15:43:54.053Z,19.17
2018-02-16T15:48:38.214Z,18.00
2018-02-16T15:53:22.350Z,20.10
2018-02-16T15:58:05.711Z,20.37
2018-02-16T16:02:50.785Z,20.77
2018-02-16T16:07:34.131Z,17.17
2018-02-16T16:12:18.576Z,18.97
2018-02-16T16:17:01.908Z,17.77
2018-02-16T16:21:45.233Z,19.80
2018-02-16T16:26:28.567Z,17.73
2018-02-16T16:31:11.903Z,22.67
2018-02-16T16:35:56.047Z,22.93
2018-02-16T16:40:39.403Z,19.57
2018-02-16T16:45:22.808Z,18.17
2018-02-16T16:50:06.416Z,24.93
2018-02-16T16:54:49.880Z,22.17
2018-02-16T16:59:34.051Z,23.63
2018-02-16T17:04:17.372Z,22.67
2018-02-16T17:09:00.731Z,19.30
2018-02-16T17:13:44.136Z,35.20
2018-02-16T17:18:27.474Z,24.53
2018-02-16T17:23:10.810Z,25.67
2018-02-16T17:27:54.135Z,23.37
2018-02-16T17:32:37.479Z,25.27
2018-02-16T17:37:20.792Z,29.37
2018-02-16T17:42:05.435Z,30.60
2018-02-16T17:46:49.574Z,27.60
2018-02-16T17:51:32.894Z,26.73
2018-02-16T17:56:16.532Z,24.07
2018-02-16T18:00:59.860Z,16.77
2018-02-16T18:05:43.209Z,23.90
2018-02-16T18:10:26.573Z,23.00
2018-02-16T18:15:09.971Z,22.30
2018-02-16T18:19:54.083Z,19.80
2018-02-16T18:24:37.397Z,24.07
2018-02-16T18:29:20.760Z,39.40
2018-02-16T18:34:04.396Z,28.97
2018-02-16T18:38:47.705Z,32.23
2018-02-16T18:43:31.148Z,22.50
2018-02-16T18:48:15.262Z,20.93
2018-02-16T18:52:58.664Z,27.43
2018-02-16T18:57:42.020Z,31.87
2018-02-16T19:02:25.687Z,27.80
2018-02-16T19:07:09.007Z,22.83
2018-02-16T19:11:52.357Z,20.63
2018-02-16T19:16:35.678Z,19.70
2018-02-16T19:21:19.070Z,25.03
2018-02-16T19:26:02.409Z,18.90
2018-02-16T19:30:46.821Z,22.03
2018-02-16T19:35:30.153Z,21.83
2018-02-16T19:40:14.320Z,22.70
2018-02-16T19:44:57.706Z,24.10
2018-02-16T19:49:41.060Z,20.80
2018-02-16T19:54:25.211Z,18.10
2018-02-16T19:59:08.871Z,20.47
2018-02-16T20:03:52.155Z,25.80
2018-02-16T20:08:35.624Z,24.47
2018-02-16T20:13:19.896Z,25.57
2018-02-16T20:18:03.255Z,24.07
2018-02-16T20:22:46.726Z,20.17
2018-02-16T20:27:30.155Z,20.57
2018-02-16T20:32:14.540Z,20.63
2018-02-16T20:36:57.906Z,19.47
2018-02-16T20:41:41.250Z,20.27
2018-02-16T20:46:24.614Z,16.87
2018-02-16T20:51:08.764Z,18.00
2018-02-16T20:55:52.352Z,18.20
2018-02-16T21:00:35.807Z,18.43
2018-02-16T21:05:19.169Z,20.73
2018-02-16T21:10:02.520Z,19.50
2018-02-16T21:14:45.970Z,19.50
2018-02-16T21:19:29.318Z,21.03
2018-02-16T21:24:13.213Z,16.63
2018-02-16T21:28:57.253Z,20.27
2018-02-16T21:33:40.864Z,22.03
2018-02-16T21:38:24.506Z,21.93
2018-02-16T21:43:13.932Z,17.33
2018-02-16T21:47:59.460Z,15.30
2018-02-16T21:52:46.620Z,22.77
2018-02-16T21:57:31.191Z,20.47
2018-02-16T22:02:15.258Z,20.30
2018-02-16T22:06:58.628Z,17.53
2018-02-16T22:11:42.237Z,19.30
2018-02-16T22:16:25.835Z,20.17
2018-02-16T22:21:09.340Z,17.37
2018-02-16T22:25:52.839Z,25.73
2018-02-16T22:30:36.467Z,19.97
2018-02-16T22:35:20.172Z,18.83
2018-02-16T22:40:03.584Z,23.57
2018-02-16T22:44:47.078Z,19.60
2018-02-16T22:49:30.552Z,22.60
2018-02-16T22:54:13.936Z,23.17
2018-02-16T22:58:58.347Z,21.87
2018-02-16T23:03:42.319Z,17.97
2018-02-16T23:08:26.134Z,18.23
2018-02-16T23:13:09.624Z,18.30
2018-02-16T23:17:52.992Z,19.93
2018-02-16T23:22:36.396Z,17.27
2018-02-16T23:27:19.873Z,20.93
2018-02-16T23:32:03.314Z,18.73
2018-02-16T23:36:46.711Z,18.20
2018-02-16T23:41:30.134Z,19.20
2018-02-16T23:46:14.231Z,14.57
2018-02-16T23:50:58.321Z,17.23
2018-02-16T23:55:41.788Z,15.43
